Time;durP1;ratioP1;P1;durP2;ratioP2;P2;SDS_P1;SDS_P2;PMS_P1;PMS_P2;Temp;Humidity;BMP_temperature;BMP_pressure;BME280_temperature;BME280_humidity;BME280_pressure;Samples;Min_cycle;Max_cycle;Signal;HPM_P1;HPM_P2
2021/10/14 00:02:00;;;;;;;2.70;2.03;;;4.80;84.10;;;;;;5116390;28;20051;-75
2021/10/14 00:04:26;;;;;;;3.42;1.95;;;4.70;84.00;;;;;;5116193;28;20072;-78
2021/10/14 00:06:51;;;;;;;4.60;1.90;;;4.70;84.00;;;;;;5116285;28;20027;-74
2021/10/14 00:09:17;;;;;;;5.28;1.90;;;4.60;83.90;;;;;;5116219;28;20023;-74
2021/10/14 00:11:43;;;;;;;13.73;2.22;;;4.60;84.20;;;;;;5114958;28;20032;-74
2021/10/14 00:14:09;;;;;;;2.88;2.10;;;4.60;84.40;;;;;;5116043;28;20024;-74
2021/10/14 00:16:35;;;;;;;2.55;1.80;;;4.60;84.10;;;;;;5116141;28;20503;-74
2021/10/14 00:19:01;;;;;;;2.83;2.13;;;4.60;84.00;;;;;;5116110;28;20022;-74
2021/10/14 00:21:27;;;;;;;3.10;1.90;;;4.60;83.90;;;;;;5116136;28;20024;-77
2021/10/14 00:23:53;;;;;;;7.88;2.50;;;4.60;84.00;;;;;;5114900;28;20022;-74
2021/10/14 00:26:18;;;;;;;3.13;2.28;;;4.50;84.10;;;;;;5115932;28;20028;-74
2021/10/14 00:28:44;;;;;;;5.13;2.08;;;4.60;84.10;;;;;;5115989;28;20024;-75
2021/10/14 00:31:09;;;;;;;6.05;2.50;;;4.60;83.80;;;;;;5115756;28;20058;-74
2021/10/14 00:33:35;;;;;;;6.30;2.40;;;4.60;83.60;;;;;;5115780;28;20035;-74
2021/10/14 00:36:01;;;;;;;4.53;1.88;;;4.50;83.80;;;;;;5114589;28;20031;-74
2021/10/14 00:38:26;;;;;;;6.05;2.10;;;4.50;84.00;;;;;;5115632;28;20115;-77
2021/10/14 00:40:52;;;;;;;5.78;2.33;;;4.50;84.20;;;;;;5115721;28;20123;-73
2021/10/14 00:43:17;;;;;;;2.80;1.95;;;4.50;84.20;;;;;;5115503;28;20051;-76
2021/10/14 00:45:43;;;;;;;2.08;1.60;;;4.50;84.20;;;;;;5115583;28;20039;-73
2021/10/14 00:48:09;;;;;;;5.55;2.22;;;4.50;84.20;;;;;;5115525;28;20037;-74
2021/10/14 00:50:34;;;;;;;3.20;2.20;;;4.50;84.10;;;;;;5115580;28;20387;-74
2021/10/14 00:53:00;;;;;;;4.10;2.00;;;4.50;84.20;;;;;;5115423;28;20066;-73
2021/10/14 00:55:27;;;;;;;4.22;1.80;;;4.50;84.10;;;;;;5115417;28;20030;-73
2021/10/14 00:57:53;;;;;;;8.13;1.95;;;4.50;83.90;;;;;;5115302;28;20073;-73
2021/10/14 01:00:18;;;;;;;2.60;1.77;;;4.50;83.70;;;;;;5115312;28;20027;-74
2021/10/14 01:02:44;;;;;;;2.25;1.88;;;4.60;83.60;;;;;;5115257;28;20027;-73
2021/10/14 01:05:11;;;;;;;3.47;2.28;;;4.60;84.10;;;;;;5115286;28;20030;-74
2021/10/14 01:07:37;;;;;;;2.28;1.80;;;4.50;82.90;;;;;;5115179;28;20489;-74
2021/10/14 01:10:04;;;;;;;4.55;2.00;;;4.50;82.80;;;;;;5115191;28;20102;-74
2021/10/14 01:12:31;;;;;;;4.15;1.80;;;4.40;83.10;;;;;;5115051;28;20069;-73
2021/10/14 01:14:57;;;;;;;3.25;2.05;;;4.40;83.10;;;;;;5114948;28;20387;-74
2021/10/14 01:17:22;;;;;;;5.13;2.38;;;4.30;83.30;;;;;;5114925;28;20099;-73
2021/10/14 01:19:48;;;;;;;6.45;2.35;;;4.20;83.70;;;;;;5114910;28;20030;-74
2021/10/14 01:22:14;;;;;;;4.60;2.42;;;4.20;84.00;;;;;;5114614;28;20030;-74
2021/10/14 01:24:40;;;;;;;3.53;2.20;;;4.10;84.40;;;;;;5114708;28;20510;-73
2021/10/14 01:27:08;;;;;;;5.22;2.50;;;4.10;84.50;;;;;;5114746;28;20026;-74
2021/10/14 01:29:35;;;;;;;4.63;2.45;;;4.10;84.80;;;;;;5114637;28;20038;-73
2021/10/14 01:32:02;;;;;;;5.70;2.90;;;4.00;84.60;;;;;;5114526;28;20495;-74
2021/10/14 01:34:28;;;;;;;4.57;2.65;;;4.00;85.10;;;;;;5114487;28;20024;-73
2021/10/14 01:36:53;;;;;;;5.20;2.65;;;4.00;85.20;;;;;;5114610;28;20019;-73
2021/10/14 01:39:19;;;;;;;6.60;2.67;;;3.90;85.40;;;;;;5114484;28;20024;-73
2021/10/14 01:41:45;;;;;;;6.15;3.00;;;3.90;85.50;;;;;;5114407;28;20110;-74
2021/10/14 01:44:11;;;;;;;7.15;3.22;;;3.80;85.20;;;;;;5114332;28;20382;-73
2021/10/14 01:46:37;;;;;;;8.30;3.42;;;3.80;85.40;;;;;;5114227;28;20042;-75
2021/10/14 01:49:03;;;;;;;7.80;3.70;;;3.80;85.70;;;;;;5114257;28;20130;-74
2021/10/14 01:51:28;;;;;;;6.55;2.90;;;3.80;85.50;;;;;;5114191;28;20479;-74
2021/10/14 01:53:54;;;;;;;5.10;2.85;;;3.80;85.60;;;;;;5114262;28;20391;-73
2021/10/14 01:56:19;;;;;;;4.22;2.80;;;3.80;85.70;;;;;;5114146;28;20028;-74
2021/10/14 01:58:45;;;;;;;5.30;3.03;;;3.80;85.70;;;;;;5114096;28;20073;-74
2021/10/14 02:01:10;;;;;;;5.22;3.47;;;3.90;85.70;;;;;;5114156;28;20024;-73
2021/10/14 02:03:36;;;;;;;6.97;3.30;;;3.90;85.60;;;;;;5113977;28;20102;-74
2021/10/14 02:06:01;;;;;;;5.30;3.40;;;3.90;85.60;;;;;;5113979;28;20054;-74
2021/10/14 02:08:27;;;;;;;5.22;3.20;;;3.90;85.50;;;;;;5113888;28;20111;-74
2021/10/14 02:10:53;;;;;;;6.07;2.80;;;3.90;85.50;;;;;;5113995;28;20038;-73
2021/10/14 02:13:18;;;;;;;3.65;2.95;;;3.90;85.30;;;;;;5113767;28;20031;-74
2021/10/14 02:15:44;;;;;;;5.35;3.13;;;3.90;85.00;;;;;;5112500;28;20107;-73
2021/10/14 02:18:10;;;;;;;6.30;3.20;;;3.80;84.80;;;;;;5113885;28;20046;-73
2021/10/14 02:20:35;;;;;;;4.45;2.85;;;3.70;85.20;;;;;;5113637;28;20483;-73
2021/10/14 02:23:01;;;;;;;5.75;2.75;;;3.70;85.60;;;;;;5113722;28;20479;-74
2021/10/14 02:25:27;;;;;;;6.35;3.22;;;3.80;85.30;;;;;;5113657;28;20055;-74
2021/10/14 02:27:52;;;;;;;4.30;2.83;;;3.70;85.20;;;;;;5113736;28;20020;-73
2021/10/14 02:30:18;;;;;;;5.93;2.90;;;3.70;85.20;;;;;;5112129;28;20047;-74
2021/10/14 02:32:44;;;;;;;5.72;2.85;;;3.70;85.40;;;;;;5113648;28;20036;-73
2021/10/14 02:35:09;;;;;;;7.43;3.60;;;3.70;85.50;;;;;;5113145;28;20019;-73
2021/10/14 02:37:35;;;;;;;5.20;2.85;;;3.80;85.50;;;;;;5113609;28;20028;-72
2021/10/14 02:40:02;;;;;;;5.40;3.33;;;3.70;85.40;;;;;;5112304;28;20030;-73
2021/10/14 02:42:28;;;;;;;8.02;3.63;;;3.80;85.40;;;;;;5113404;28;20088;-73
2021/10/14 02:44:53;;;;;;;4.88;3.50;;;3.80;85.20;;;;;;5113509;28;20468;-74
2021/10/14 02:47:19;;;;;;;6.07;3.47;;;3.70;85.50;;;;;;5125600;28;20028;-74
2021/10/14 02:49:44;;;;;;;7.43;4.10;;;3.70;85.50;;;;;;5132675;28;20024;-73
2021/10/14 02:52:10;;;;;;;13.48;3.88;;;3.70;85.60;;;;;;5128041;28;20031;-74
2021/10/14 02:54:36;;;;;;;8.88;4.10;;;3.80;85.50;;;;;;5116576;28;20016;-74
2021/10/14 02:57:01;;;;;;;6.97;4.25;;;3.70;85.70;;;;;;5112689;28;20019;-73
2021/10/14 02:59:27;;;;;;;7.68;4.30;;;3.70;85.90;;;;;;5112029;28;20023;-75
2021/10/14 03:01:52;;;;;;;8.50;4.60;;;3.70;85.80;;;;;;5113212;28;20039;-73
2021/10/14 03:04:18;;;;;;;10.73;5.10;;;3.70;85.60;;;;;;5113245;28;20019;-74
2021/10/14 03:06:44;;;;;;;8.93;4.32;;;3.60;85.50;;;;;;5111918;28;20031;-74
2021/10/14 03:09:09;;;;;;;8.18;4.90;;;3.60;85.60;;;;;;5113377;28;20024;-74
2021/10/14 03:11:35;;;;;;;7.88;4.40;;;3.50;86.20;;;;;;5112974;28;20098;-74
2021/10/14 03:14:01;;;;;;;8.38;4.72;;;3.50;86.40;;;;;;5113094;28;20035;-74
2021/10/14 03:16:26;;;;;;;7.18;4.25;;;3.40;86.60;;;;;;5112865;28;20484;-74
2021/10/14 03:18:52;;;;;;;6.60;3.67;;;3.40;86.90;;;;;;5113146;28;20051;-74
2021/10/14 03:21:19;;;;;;;9.23;4.50;;;3.40;86.80;;;;;;5113155;28;20055;-75
2021/10/14 03:23:45;;;;;;;6.60;3.92;;;3.50;86.70;;;;;;5113006;28;20027;-76
2021/10/14 03:26:11;;;;;;;6.70;3.63;;;3.50;86.70;;;;;;5113170;28;20164;-75
2021/10/14 03:28:37;;;;;;;10.68;4.00;;;3.50;86.50;;;;;;5113033;28;20027;-75
2021/10/14 03:31:02;;;;;;;6.10;4.00;;;3.50;86.30;;;;;;5112921;28;20039;-74
2021/10/14 03:33:28;;;;;;;7.63;4.20;;;3.60;86.70;;;;;;5112917;28;20120;-74
2021/10/14 03:35:53;;;;;;;7.82;3.75;;;3.50;85.80;;;;;;5113015;28;20028;-74
2021/10/14 03:38:19;;;;;;;8.00;3.88;;;3.50;85.70;;;;;;5113032;28;20055;-74
2021/10/14 03:40:44;;;;;;;7.68;3.90;;;3.40;85.70;;;;;;5112962;28;20494;-74
2021/10/14 03:43:10;;;;;;;6.43;4.13;;;3.40;85.80;;;;;;5111569;28;20395;-74
2021/10/14 03:45:35;;;;;;;6.43;3.60;;;3.30;86.10;;;;;;5113311;28;20487;-74
2021/10/14 03:48:01;;;;;;;6.47;3.58;;;3.40;86.10;;;;;;5116559;28;20029;-74
2021/10/14 03:50:27;;;;;;;8.98;3.33;;;3.40;86.00;;;;;;5116602;28;20098;-74
2021/10/14 03:52:53;;;;;;;7.63;4.03;;;3.50;85.90;;;;;;5116494;28;20076;-74
2021/10/14 03:55:18;;;;;;;10.00;4.55;;;3.50;85.90;;;;;;5116568;28;20028;-74
2021/10/14 03:57:44;;;;;;;9.63;4.68;;;3.50;85.80;;;;;;5115696;28;20020;-74
2021/10/14 04:00:10;;;;;;;8.18;3.42;;;3.50;85.50;;;;;;5116931;28;20032;-74
2021/10/14 04:02:36;;;;;;;10.60;4.10;;;3.50;85.50;;;;;;5116824;28;20038;-74
2021/10/14 04:05:02;;;;;;;8.48;4.20;;;3.50;85.20;;;;;;5116613;28;20024;-74
2021/10/14 04:07:28;;;;;;;7.57;4.22;;;3.40;84.90;;;;;;5116396;28;20027;-74
2021/10/14 04:09:53;;;;;;;9.60;4.85;;;3.40;84.40;;;;;;5116372;28;20024;-74
2021/10/14 04:12:19;;;;;;;9.68;5.70;;;3.30;84.60;;;;;;5116270;28;20027;-74
2021/10/14 04:14:44;;;;;;;10.70;5.30;;;3.30;84.20;;;;;;5114969;28;20027;-73
2021/10/14 04:17:10;;;;;;;9.07;5.63;;;3.40;83.90;;;;;;5116238;28;20020;-73
2021/10/14 04:19:36;;;;;;;13.07;5.40;;;3.30;83.50;;;;;;5116231;28;20035;-73
2021/10/14 04:22:01;;;;;;;11.00;5.35;;;3.30;83.50;;;;;;5116109;28;20085;-72
2021/10/14 04:24:29;;;;;;;6.03;4.07;;;3.30;83.70;;;;;;5116128;28;20027;-72
2021/10/14 04:26:55;;;;;;;6.80;4.05;;;3.20;84.00;;;;;;5116196;28;20118;-74
2021/10/14 04:29:21;;;;;;;7.45;3.65;;;3.30;84.50;;;;;;5115972;28;20024;-73
2021/10/14 04:31:47;;;;;;;5.85;3.83;;;3.30;84.70;;;;;;5115601;28;20048;-73
2021/10/14 04:34:12;;;;;;;8.73;4.28;;;3.30;84.80;;;;;;5115875;28;20483;-73
2021/10/14 04:36:38;;;;;;;6.07;4.15;;;3.30;85.00;;;;;;5115801;28;20047;-73
2021/10/14 04:39:05;;;;;;;8.07;3.90;;;3.40;85.30;;;;;;5115954;28;20084;-73
2021/10/14 04:41:31;;;;;;;8.48;4.30;;;3.40;85.30;;;;;;5115721;28;20027;-73
2021/10/14 04:43:57;;;;;;;9.07;4.38;;;3.50;85.20;;;;;;5115717;28;20464;-73
2021/10/14 04:46:22;;;;;;;9.38;4.38;;;3.50;85.00;;;;;;5115874;28;20077;-74
2021/10/14 04:48:48;;;;;;;7.53;4.22;;;3.50;85.90;;;;;;5115734;28;20030;-73
2021/10/14 04:51:14;;;;;;;7.10;3.95;;;3.50;84.80;;;;;;5115656;28;20031;-73
2021/10/14 04:53:39;;;;;;;9.35;4.68;;;3.60;84.70;;;;;;5115398;28;20118;-73
2021/10/14 04:56:05;;;;;;;12.75;4.95;;;3.50;84.70;;;;;;5115447;28;20045;-73
2021/10/14 04:58:31;;;;;;;13.25;5.82;;;3.50;84.80;;;;;;5114817;28;20043;-73
2021/10/14 05:00:57;;;;;;;15.48;5.90;;;3.50;85.10;;;;;;5115462;28;20015;-73
2021/10/14 05:03:22;;;;;;;14.43;6.70;;;3.40;85.40;;;;;;5114831;28;20034;-74
2021/10/14 05:05:48;;;;;;;16.05;6.20;;;3.40;85.50;;;;;;5120254;28;20015;-74
2021/10/14 05:08:14;;;;;;;12.35;5.78;;;3.40;85.80;;;;;;5121286;28;20028;-73
2021/10/14 05:10:40;;;;;;;13.20;6.00;;;3.30;85.90;;;;;;5118224;28;20019;-73
2021/10/14 05:13:06;;;;;;;14.98;6.25;;;3.30;86.10;;;;;;5118792;28;20024;-73
2021/10/14 05:15:31;;;;;;;17.13;6.43;;;3.30;86.10;;;;;;5116016;28;20482;-73
2021/10/14 05:17:57;;;;;;;10.63;5.13;;;3.30;86.00;;;;;;5115087;28;20380;-74
2021/10/14 05:20:23;;;;;;;12.85;5.85;;;3.40;85.70;;;;;;5115060;28;20027;-73
2021/10/14 05:22:48;;;;;;;9.13;5.50;;;3.40;85.40;;;;;;5115128;28;20102;-74
2021/10/14 05:25:14;;;;;;;12.02;5.90;;;3.50;85.20;;;;;;5115251;28;20357;-73
2021/10/14 05:27:40;;;;;;;17.48;8.27;;;3.50;85.00;;;;;;5115101;28;20027;-74
2021/10/14 05:30:06;;;;;;;16.90;9.30;;;3.50;84.20;;;;;;5114634;28;20073;-73
2021/10/14 05:32:31;;;;;;;15.35;7.05;;;3.50;83.80;;;;;;5114361;28;20028;-73
2021/10/14 05:34:59;;;;;;;12.02;7.32;;;3.50;83.70;;;;;;5114774;28;20022;-74
2021/10/14 05:37:26;;;;;;;13.60;7.90;;;3.50;84.00;;;;;;5114463;28;20077;-74
2021/10/14 05:39:51;;;;;;;12.40;6.90;;;3.50;83.90;;;;;;5113178;28;20030;-73
2021/10/14 05:42:17;;;;;;;12.30;5.53;;;3.50;84.20;;;;;;5114412;28;20027;-74
2021/10/14 05:44:42;;;;;;;8.68;4.35;;;3.50;84.20;;;;;;5112574;28;20073;-74
2021/10/14 05:47:08;;;;;;;6.85;3.75;;;3.50;84.20;;;;;;5118309;28;20062;-75
2021/10/14 05:49:34;;;;;;;8.75;4.97;;;3.50;84.10;;;;;;5137426;28;20012;-73
2021/10/14 05:51:59;;;;;;;9.30;6.18;;;3.50;84.20;;;;;;5124244;28;20035;-74
2021/10/14 05:54:25;;;;;;;10.35;5.50;;;3.50;84.10;;;;;;5113598;28;20073;-74
2021/10/14 05:56:50;;;;;;;12.30;5.03;;;3.50;84.40;;;;;;5113458;28;20051;-73
2021/10/14 05:59:16;;;;;;;9.02;4.65;;;3.60;84.10;;;;;;5113365;28;20028;-76
2021/10/14 06:01:42;;;;;;;14.30;5.20;;;3.60;83.90;;;;;;5112154;28;20043;-75
2021/10/14 06:04:07;;;;;;;8.20;4.57;;;3.60;83.90;;;;;;5113460;28;20019;-74
2021/10/14 06:06:33;;;;;;;13.18;5.65;;;3.60;84.00;;;;;;5113367;28;20468;-75
2021/10/14 06:08:58;;;;;;;10.63;4.90;;;3.50;83.90;;;;;;5112943;28;20157;-74
2021/10/14 06:11:24;;;;;;;12.38;5.57;;;3.50;84.10;;;;;;5113274;28;20376;-74
2021/10/14 06:13:50;;;;;;;7.47;4.72;;;3.50;84.30;;;;;;5113102;28;20096;-74
2021/10/14 06:16:15;;;;;;;10.23;4.63;;;3.50;84.40;;;;;;5113099;28;20482;-74
2021/10/14 06:18:41;;;;;;;11.27;4.78;;;3.40;84.60;;;;;;5112962;28;20034;-74
2021/10/14 06:21:07;;;;;;;10.77;4.57;;;3.40;84.50;;;;;;5112831;28;20020;-74
2021/10/14 06:23:32;;;;;;;11.70;5.32;;;3.40;85.10;;;;;;5113502;28;20464;-75
2021/10/14 06:25:58;;;;;;;12.73;5.18;;;3.50;85.10;;;;;;5113358;28;20015;-75
2021/10/14 06:28:24;;;;;;;8.50;5.32;;;3.60;84.90;;;;;;5113393;28;20076;-74
2021/10/14 06:30:51;;;;;;;10.25;4.80;;;3.60;84.90;;;;;;5112778;28;20054;-73
2021/10/14 06:33:17;;;;;;;8.88;4.97;;;3.60;84.80;;;;;;5112567;28;20142;-73
2021/10/14 06:35:43;;;;;;;8.77;4.85;;;3.70;84.70;;;;;;5112766;28;20020;-73
2021/10/14 06:38:08;;;;;;;12.25;5.70;;;3.80;84.40;;;;;;5112779;28;20020;-74
2021/10/14 06:40:34;;;;;;;11.18;5.03;;;3.80;84.20;;;;;;5112538;28;20069;-73
2021/10/14 06:43:00;;;;;;;11.00;4.63;;;3.90;84.40;;;;;;5112738;28;20633;-74
2021/10/14 06:45:26;;;;;;;10.02;5.18;;;3.90;84.30;;;;;;5113435;28;20087;-74
2021/10/14 06:47:52;;;;;;;12.95;4.95;;;3.90;84.20;;;;;;5112930;28;20024;-73
2021/10/14 06:50:18;;;;;;;10.52;5.28;;;4.00;84.20;;;;;;5113269;28;20388;-73
2021/10/14 06:52:44;;;;;;;9.80;5.05;;;4.00;84.20;;;;;;5112759;28;20023;-80
2021/10/14 06:55:10;;;;;;;12.98;5.35;;;4.10;84.10;;;;;;5113315;28;20095;-77
2021/10/14 06:57:35;;;;;;;11.30;5.05;;;4.20;83.70;;;;;;5112442;28;20028;-74
2021/10/14 07:00:06;;;;;;;10.48;4.68;;;4.20;83.50;;;;;;5112832;28;20520;-79
2021/10/14 07:02:31;;;;;;;16.60;5.50;;;4.70;92.50;;;;;;5113457;28;20027;-79
2021/10/14 07:04:57;;;;;;;11.07;5.03;;;5.20;93.60;;;;;;5112654;28;20035;-79
2021/10/14 07:07:23;;;;;;;11.52;4.50;;;5.50;89.70;;;;;;5113293;28;20069;-80
2021/10/14 07:09:48;;;;;;;8.43;4.30;;;5.80;85.00;;;;;;5113562;28;20024;-81
2021/10/14 07:12:15;;;;;;;9.90;4.57;;;5.90;80.40;;;;;;5112753;28;20024;-81
2021/10/14 07:14:42;;;;;;;10.15;5.03;;;6.10;80.30;;;;;;5111124;28;20024;-75
2021/10/14 07:17:07;;;;;;;9.52;4.70;;;6.30;78.90;;;;;;5111264;28;20024;-75
2021/10/14 07:19:33;;;;;;;8.18;4.38;;;6.40;77.40;;;;;;5112565;28;20562;-76
2021/10/14 07:22:01;;;;;;;12.02;4.22;;;6.40;76.80;;;;;;5115830;28;20514;-76
2021/10/14 07:24:27;;;;;;;10.85;4.70;;;6.30;76.50;;;;;;5115194;28;20042;-75
2021/10/14 07:26:53;;;;;;;13.93;5.25;;;6.20;77.00;;;;;;5116937;28;20482;-76
2021/10/14 07:29:18;;;;;;;10.38;4.50;;;6.10;77.30;;;;;;5116568;28;20099;-75
2021/10/14 07:31:44;;;;;;;12.18;5.00;;;6.10;77.80;;;;;;5116144;28;20044;-75
2021/10/14 07:34:09;;;;;;;15.25;4.53;;;6.00;78.00;;;;;;5116733;28;20058;-75
2021/10/14 07:36:35;;;;;;;10.30;5.28;;;6.00;78.30;;;;;;5116534;28;20030;-75
2021/10/14 07:39:02;;;;;;;11.60;5.00;;;6.00;78.40;;;;;;5117183;28;20028;-75
2021/10/14 07:41:28;;;;;;;11.70;4.68;;;6.10;78.50;;;;;;5126170;28;20039;-75
2021/10/14 07:43:54;;;;;;;7.15;4.30;;;6.20;78.40;;;;;;5141387;28;20020;-75
2021/10/14 07:46:20;;;;;;;10.65;4.97;;;6.30;78.30;;;;;;5131804;28;20031;-75
2021/10/14 07:48:46;;;;;;;7.75;4.75;;;6.40;78.00;;;;;;5116489;28;20015;-75
2021/10/14 07:51:11;;;;;;;16.75;4.28;;;6.50;78.00;;;;;;5116402;28;20032;-76
2021/10/14 07:53:37;;;;;;;9.32;4.40;;;6.60;77.70;;;;;;5116740;28;20071;-76
2021/10/14 07:56:03;;;;;;;12.40;5.13;;;6.70;77.60;;;;;;5115780;28;20016;-75
2021/10/14 07:58:28;;;;;;;8.27;4.40;;;6.80;77.30;;;;;;5116089;28;20084;-75
2021/10/14 08:00:54;;;;;;;10.75;4.97;;;7.00;77.30;;;;;;5115896;28;20028;-75
2021/10/14 08:03:19;;;;;;;10.93;5.03;;;7.20;76.80;;;;;;5115955;28;20028;-75
2021/10/14 08:05:45;;;;;;;9.07;3.97;;;7.40;76.00;;;;;;5114488;28;20028;-75
2021/10/14 08:08:10;;;;;;;9.35;4.75;;;7.50;75.40;;;;;;5115586;28;20241;-75
2021/10/14 08:10:36;;;;;;;5.68;3.70;;;7.70;75.50;;;;;;5115519;28;20020;-75
2021/10/14 08:13:03;;;;;;;7.32;3.72;;;7.90;75.00;;;;;;5115499;28;20031;-75
2021/10/14 08:15:29;;;;;;;4.28;3.25;;;8.00;74.20;;;;;;5115524;28;20383;-75
2021/10/14 08:17:54;;;;;;;8.80;3.72;;;8.10;73.90;;;;;;5115385;28;20028;-75
2021/10/14 08:20:20;;;;;;;5.18;2.70;;;8.30;73.30;;;;;;5115358;28;20531;-75
2021/10/14 08:22:46;;;;;;;5.97;2.50;;;8.50;72.80;;;;;;5115387;28;20391;-75
2021/10/14 08:25:14;;;;;;;5.82;3.35;;;8.60;72.10;;;;;;5115492;28;20038;-75
2021/10/14 08:27:41;;;;;;;6.18;3.45;;;8.80;71.50;;;;;;5115601;28;20019;-76
2021/10/14 08:30:08;;;;;;;8.10;4.03;;;9.00;71.50;;;;;;5113753;28;20030;-76
2021/10/14 08:32:34;;;;;;;8.68;3.45;;;9.20;71.40;;;;;;5113960;28;20031;-75
2021/10/14 08:35:00;;;;;;;7.90;3.80;;;9.40;71.60;;;;;;5115141;28;20407;-75
2021/10/14 08:37:26;;;;;;;8.20;4.00;;;9.50;71.70;;;;;;5115194;28;20464;-75
2021/10/14 08:39:53;;;;;;;7.82;3.72;;;9.70;70.20;;;;;;5114973;28;20034;-75
2021/10/14 08:42:20;;;;;;;7.00;3.40;;;9.90;69.00;;;;;;5115053;28;20031;-76
2021/10/14 08:44:47;;;;;;;6.90;3.53;;;10.00;68.10;;;;;;5115074;28;20046;-76
2021/10/14 08:47:13;;;;;;;10.68;4.35;;;10.00;67.10;;;;;;5114807;28;20023;-76
2021/10/14 08:49:47;;;;;;;7.28;3.80;;;9.90;68.30;;;;;;5114775;28;20019;-76
2021/10/14 08:52:14;;;;;;;11.20;4.80;;;10.00;68.70;;;;;;5114795;28;20024;-76
2021/10/14 08:54:40;;;;;;;10.48;3.85;;;10.10;67.90;;;;;;5114721;28;20540;-76
2021/10/14 08:57:06;;;;;;;6.55;3.72;;;10.00;67.90;;;;;;5114717;28;20054;-76
2021/10/14 08:59:31;;;;;;;8.50;3.80;;;10.10;68.20;;;;;;5114715;28;20469;-76
2021/10/14 09:02:10;;;;;;;7.43;3.05;;;10.20;66.60;;;;;;5113309;28;20102;-76
2021/10/14 09:04:48;;;;;;;8.23;4.07;;;10.40;66.00;;;;;;5114470;28;20114;-77
2021/10/14 09:07:15;;;;;;;8.48;2.92;;;10.60;65.40;;;;;;5114757;28;20095;-76
2021/10/14 09:09:42;;;;;;;6.78;2.95;;;10.80;63.10;;;;;;5114424;28;20035;-76
2021/10/14 09:12:09;;;;;;;6.18;2.35;;;11.00;60.80;;;;;;5113811;28;20104;-77
2021/10/14 09:14:55;;;;;;;3.63;2.15;;;11.20;59.10;;;;;;5114272;28;20031;-75
2021/10/14 09:17:48;;;;;;;4.82;2.92;;;11.40;58.60;;;;;;5114175;28;20034;-75
2021/10/14 09:20:30;;;;;;;6.72;2.83;;;11.60;57.80;;;;;;5114051;28;20020;-75
2021/10/14 09:23:17;;;;;;;7.50;2.67;;;11.60;57.50;;;;;;5113875;28;20031;-76
2021/10/14 09:25:47;;;;;;;4.90;2.20;;;11.50;57.50;;;;;;5113417;28;20028;-75
2021/10/14 09:28:15;;;;;;;9.25;3.15;;;11.70;56.30;;;;;;5113938;28;20039;-75
2021/10/14 09:31:02;;;;;;;4.68;2.55;;;12.00;56.20;;;;;;5113870;28;20100;-75
2021/10/14 09:33:35;;;;;;;6.32;3.03;;;12.30;55.90;;;;;;5114081;28;20039;-75
2021/10/14 09:36:16;;;;;;;7.10;2.58;;;12.70;56.90;;;;;;5114211;28;20020;-75
2021/10/14 09:38:48;;;;;;;6.82;2.13;;;12.60;54.70;;;;;;5113192;28;20050;-75
2021/10/14 09:41:16;;;;;;;7.68;2.63;;;12.70;55.00;;;;;;5118850;28;20030;-75
2021/10/14 09:43:43;;;;;;;3.40;2.17;;;12.80;55.00;;;;;;5136559;28;20023;-74
2021/10/14 09:46:09;;;;;;;5.50;1.80;;;13.10;54.70;;;;;;5115099;28;20047;-74
2021/10/14 09:48:40;;;;;;;8.88;2.63;;;13.30;53.40;;;;;;5114047;28;20372;-75
2021/10/14 09:51:06;;;;;;;2.42;1.77;;;13.50;51.60;;;;;;5113705;28;20061;-75
2021/10/14 09:53:32;;;;;;;5.65;2.08;;;13.60;49.80;;;;;;5113502;28;20063;-75
2021/10/14 09:55:57;;;;;;;6.60;2.22;;;13.40;48.40;;;;;;5113420;28;20024;-75
2021/10/14 09:58:24;;;;;;;4.22;2.47;;;13.50;49.60;;;;;;5113531;28;20036;-74
2021/10/14 10:00:50;;;;;;;4.15;2.25;;;13.20;50.00;;;;;;5113294;28;20024;-74
2021/10/14 10:03:19;;;;;;;5.80;2.47;;;13.40;50.40;;;;;;5112983;28;20084;-77
2021/10/14 10:05:54;;;;;;;5.28;3.40;;;13.70;49.10;;;;;;5112866;28;20045;-74
2021/10/14 10:08:35;;;;;;;4.65;2.42;;;13.90;47.30;;;;;;5112831;28;20552;-74
2021/10/14 10:11:05;;;;;;;5.15;2.10;;;14.20;45.20;;;;;;5112800;28;20471;-74
2021/10/14 10:13:33;;;;;;;2.60;1.75;;;14.30;45.60;;;;;;5112797;28;20047;-74
2021/10/14 10:16:19;;;;;;;5.80;1.92;;;14.00;44.10;;;;;;5112888;28;20023;-74
2021/10/14 10:18:46;;;;;;;5.90;1.92;;;14.20;44.80;;;;;;5113148;28;20028;-77
2021/10/14 10:21:33;;;;;;;3.97;1.90;;;14.30;43.50;;;;;;5112771;28;20024;-77
2021/10/14 10:23:59;;;;;;;5.75;2.25;;;14.50;40.90;;;;;;5112856;28;20016;-77
2021/10/14 10:26:34;;;;;;;4.28;1.70;;;14.60;40.80;;;;;;5112550;28;20032;-74
2021/10/14 10:29:07;;;;;;;4.77;2.17;;;14.90;40.70;;;;;;5113064;28;20130;-76
2021/10/14 10:31:54;;;;;;;4.57;2.13;;;15.00;40.00;;;;;;5112610;28;20281;-76
2021/10/14 10:34:42;;;;;;;4.43;1.90;;;15.20;41.10;;;;;;5113004;28;20038;-76
2021/10/14 10:37:19;;;;;;;4.20;2.30;;;15.10;41.30;;;;;;5113116;28;20294;-77
2021/10/14 10:39:58;;;;;;;4.22;1.77;;;15.00;42.10;;;;;;5112949;28;20032;-77
2021/10/14 10:42:46;;;;;;;4.40;2.83;;;15.20;42.60;;;;;;5112951;28;20035;-74
2021/10/14 10:45:27;;;;;;;3.10;2.00;;;15.60;40.90;;;;;;5112129;28;20070;-75
2021/10/14 10:47:53;;;;;;;6.57;2.20;;;15.60;39.90;;;;;;5112514;28;20027;-75
2021/10/14 10:50:26;;;;;;;4.15;1.83;;;15.70;39.50;;;;;;5112459;28;20103;-76
2021/10/14 10:53:06;;;;;;;3.95;2.00;;;15.90;39.40;;;;;;5112025;28;20156;-75
2021/10/14 10:55:33;;;;;;;2.97;1.27;;;15.80;39.20;;;;;;5111339;28;20024;-74
2021/10/14 10:58:00;;;;;;;6.07;1.95;;;16.00;38.20;;;;;;5111988;28;20472;-75
2021/10/14 11:00:26;;;;;;;3.75;1.67;;;15.90;38.10;;;;;;5111940;28;20023;-74
2021/10/14 11:03:11;;;;;;;4.43;1.80;;;15.20;38.80;;;;;;5112248;28;20019;-75
2021/10/14 11:05:45;;;;;;;2.55;1.73;;;15.40;38.60;;;;;;5112325;28;20107;-75
2021/10/14 11:08:12;;;;;;;3.03;1.88;;;15.70;38.80;;;;;;5112583;28;20031;-75
2021/10/14 11:10:38;;;;;;;5.13;1.95;;;15.70;40.00;;;;;;5112178;28;20020;-74
2021/10/14 11:13:04;;;;;;;3.13;1.50;;;16.00;38.50;;;;;;5112739;28;20040;-75
2021/10/14 11:15:30;;;;;;;3.53;1.80;;;16.30;39.20;;;;;;5112193;28;20149;-75
2021/10/14 11:18:04;;;;;;;3.30;1.80;;;16.40;38.00;;;;;;5112040;28;20024;-75
2021/10/14 11:20:30;;;;;;;2.83;1.80;;;16.00;37.50;;;;;;5112418;28;20476;-74
2021/10/14 11:23:07;;;;;;;2.40;1.80;;;16.10;38.30;;;;;;5112720;28;20030;-75
2021/10/14 11:25:35;;;;;;;2.53;2.00;;;16.50;37.30;;;;;;5110903;28;20107;-74
2021/10/14 11:28:02;;;;;;;4.07;2.03;;;16.80;36.80;;;;;;5112084;28;20050;-75
2021/10/14 11:30:38;;;;;;;3.53;1.50;;;16.80;37.00;;;;;;5111429;28;20568;-75
2021/10/14 11:33:10;;;;;;;;;;;16.80;36.00;;;;;;5112126;28;20050;-75
2021/10/14 11:35:36;;;;;;;2.22;1.40;;;17.30;36.00;;;;;;5111488;28;20300;-74
2021/10/14 11:38:10;;;;;;;1.92;1.50;;;17.70;35.50;;;;;;5112025;28;20106;-76
2021/10/14 11:40:37;;;;;;;3.17;1.80;;;18.10;35.10;;;;;;5112142;28;20043;-75
2021/10/14 11:43:03;;;;;;;5.82;1.95;;;18.60;33.50;;;;;;5111945;28;20353;-75
2021/10/14 11:45:28;;;;;;;5.07;2.03;;;18.90;33.10;;;;;;5112343;28;20153;-75
2021/10/14 11:47:54;;;;;;;4.75;1.67;;;19.10;33.50;;;;;;5112040;28;20023;-75
2021/10/14 11:50:24;;;;;;;1.67;1.35;;;19.40;33.20;;;;;;5111819;28;20039;-75
2021/10/14 11:53:00;;;;;;;2.83;1.63;;;19.70;31.50;;;;;;5111727;28;20165;-75
2021/10/14 11:55:26;;;;;;;7.43;1.35;;;19.90;30.00;;;;;;5111779;28;20028;-74
2021/10/14 11:57:56;;;;;;;3.03;1.63;;;19.70;28.10;;;;;;5112034;28;20157;-75
2021/10/14 12:00:22;;;;;;;4.97;1.35;;;19.90;29.10;;;;;;5110978;28;20019;-74
2021/10/14 12:02:48;;;;;;;5.30;1.20;;;19.80;29.10;;;;;;5111609;28;20035;-75
2021/10/14 12:05:15;;;;;;;1.80;1.48;;;19.90;28.40;;;;;;5111907;28;20503;-75
2021/10/14 12:07:43;;;;;;;3.63;1.40;;;20.10;27.30;;;;;;5112608;28;20667;-75
2021/10/14 12:10:33;;;;;;;2.67;1.40;;;19.90;26.20;;;;;;5115924;28;20107;-73
2021/10/14 12:13:05;;;;;;;2.42;1.25;;;20.20;26.00;;;;;;5118136;28;20117;-75
2021/10/14 12:15:32;;;;;;;2.10;1.60;;;20.60;25.30;;;;;;5119376;28;20049;-75
2021/10/14 12:17:57;;;;;;;2.42;1.58;;;20.90;25.20;;;;;;5119508;28;20035;-75
2021/10/14 12:20:24;;;;;;;3.22;1.60;;;21.10;24.60;;;;;;5116086;28;20019;-75
2021/10/14 12:23:05;;;;;;;3.22;1.60;;;21.20;24.50;;;;;;5115266;28;20031;-75
2021/10/14 12:25:42;;;;;;;2.28;1.42;;;21.40;24.70;;;;;;5115435;28;20054;-75
2021/10/14 12:28:20;;;;;;;1.85;1.27;;;21.30;25.00;;;;;;5115095;28;20024;-75
2021/10/14 12:30:46;;;;;;;3.35;1.23;;;21.00;24.50;;;;;;5115200;28;20052;-75
2021/10/14 12:33:11;;;;;;;3.67;1.75;;;20.80;25.30;;;;;;5119028;28;20437;-75
2021/10/14 12:35:40;;;;;;;3.22;1.60;;;21.10;26.10;;;;;;5115484;28;20020;-75
2021/10/14 12:38:08;;;;;;;5.82;1.80;;;21.30;24.30;;;;;;5115054;28;20058;-75
2021/10/14 12:40:34;;;;;;;3.42;1.42;;;20.90;23.60;;;;;;5114988;28;20495;-75
2021/10/14 12:48:53;;;;;;;3.17;1.52;;;19.80;24.50;;;;;;5114732;28;20027;-75
2021/10/14 12:51:21;;;;;;;2.42;1.40;;;19.40;25.20;;;;;;5114744;28;20024;-75
2021/10/14 12:54:03;;;;;;;2.05;1.52;;;19.10;27.10;;;;;;5114443;28;20114;-74
2021/10/14 12:56:42;;;;;;;4.10;2.20;;;19.20;27.50;;;;;;5114304;28;20483;-74
2021/10/14 12:59:11;;;;;;;2.95;1.70;;;19.30;28.50;;;;;;5112797;28;20418;-75
2021/10/14 13:01:38;;;;;;;2.90;1.50;;;19.80;28.00;;;;;;5114278;28;20043;-74